Time;durP1;ratioP1;P1;durP2;ratioP2;P2;SDS_P1;SDS_P2;PMS_P1;PMS_P2;Temp;Humidity;BMP_temperature;BMP_pressure;BME280_temperature;BME280_humidity;BME280_pressure;Samples;Min_cycle;Max_cycle;Signal;HPM_P1;HPM_P2
2024/01/24 00:01:03;;;;;;;6.10;2.08;;;12.30;99.90;;;;;;958921;147;27346;-81
2024/01/24 00:03:29;;;;;;;4.03;2.00;;;12.40;99.90;;;;;;958419;147;27383;-81
2024/01/24 00:05:56;;;;;;;6.22;2.00;;;12.40;99.90;;;;;;958657;147;27296;-81
2024/01/24 00:08:23;;;;;;;6.25;2.15;;;12.50;99.90;;;;;;957403;147;27383;-81
2024/01/24 00:10:49;;;;;;;4.17;2.10;;;12.40;99.90;;;;;;959029;147;27338;-81
2024/01/24 00:13:16;;;;;;;4.83;1.90;;;12.50;99.90;;;;;;958582;147;27311;-81
2024/01/24 00:15:42;;;;;;;3.33;1.90;;;12.50;99.90;;;;;;957927;147;27423;-82
2024/01/24 00:18:09;;;;;;;5.07;2.00;;;12.60;99.90;;;;;;960435;147;27334;-82
2024/01/24 00:20:35;;;;;;;2.42;1.57;;;12.60;99.90;;;;;;958915;145;27462;-82
2024/01/24 00:23:02;;;;;;;3.43;2.60;;;12.60;99.90;;;;;;960683;146;27321;-81
2024/01/24 00:25:29;;;;;;;5.15;2.22;;;12.70;99.90;;;;;;959391;147;27331;-82
2024/01/24 00:27:55;;;;;;;3.83;1.67;;;12.70;99.90;;;;;;959350;146;27272;-81
2024/01/24 00:30:22;;;;;;;3.52;1.50;;;12.70;99.90;;;;;;959635;146;27341;-82
2024/01/24 00:32:48;;;;;;;5.22;2.05;;;12.70;99.90;;;;;;959310;147;27373;-81
2024/01/24 00:35:15;;;;;;;6.97;2.25;;;12.80;99.90;;;;;;959446;147;27318;-81
2024/01/24 00:37:42;;;;;;;2.77;1.72;;;12.80;99.90;;;;;;961626;146;27344;-82
2024/01/24 00:40:08;;;;;;;3.12;1.60;;;12.90;99.90;;;;;;960113;146;27331;-82
2024/01/24 00:42:35;;;;;;;3.15;1.85;;;12.90;99.90;;;;;;961278;146;27315;-81
2024/01/24 00:45:01;;;;;;;4.08;1.72;;;12.90;99.90;;;;;;959761;146;27356;-81
2024/01/24 00:47:28;;;;;;;3.72;1.40;;;13.00;99.90;;;;;;959577;146;27326;-81
2024/01/24 00:49:55;;;;;;;3.72;1.67;;;13.00;99.90;;;;;;961024;147;27278;-81
2024/01/24 00:52:21;;;;;;;4.50;1.60;;;13.00;99.90;;;;;;958807;146;27347;-82
2024/01/24 00:54:48;;;;;;;1.75;1.12;;;13.10;99.90;;;;;;959224;147;27395;-82
2024/01/24 00:57:14;;;;;;;3.02;1.47;;;13.10;99.90;;;;;;958619;147;27315;-82
2024/01/24 00:59:41;;;;;;;5.15;1.75;;;13.10;99.90;;;;;;960307;147;27290;-81
2024/01/24 01:02:08;;;;;;;3.10;1.30;;;13.10;99.90;;;;;;960200;147;27341;-81
2024/01/24 01:04:34;;;;;;;3.83;1.45;;;13.20;99.90;;;;;;960162;146;27442;-81
2024/01/24 01:07:01;;;;;;;3.25;1.47;;;13.20;99.90;;;;;;959301;146;27388;-82
2024/01/24 01:09:27;;;;;;;3.40;1.47;;;13.30;99.90;;;;;;960269;146;27309;-82
2024/01/24 01:11:54;;;;;;;4.00;1.65;;;13.30;99.90;;;;;;961072;146;27414;-81
2024/01/24 01:14:21;;;;;;;1.82;1.20;;;13.30;99.90;;;;;;959655;147;27335;-81
2024/01/24 01:16:47;;;;;;;2.83;1.40;;;13.30;99.90;;;;;;960383;147;27333;-82
2024/01/24 01:19:14;;;;;;;3.72;1.57;;;13.30;99.90;;;;;;958844;146;27299;-81
2024/01/24 01:21:40;;;;;;;1.37;1.27;;;13.40;99.90;;;;;;954336;147;27310;-81
2024/01/24 01:24:09;;;;;;;2.58;1.57;;;13.40;99.90;;;;;;952323;148;27744;-82
2024/01/24 01:26:33;;;;;;;2.58;1.80;;;13.40;99.90;;;;;;952718;147;27401;-82
2024/01/24 01:29:00;;;;;;;3.22;1.70;;;13.40;99.90;;;;;;956250;148;27261;-81
2024/01/24 01:31:27;;;;;;;3.55;1.50;;;13.50;99.90;;;;;;954092;148;27265;-81
2024/01/24 01:33:53;;;;;;;2.55;1.90;;;13.50;99.90;;;;;;953283;147;27385;-81
2024/01/24 01:36:20;;;;;;;4.58;1.40;;;13.50;99.90;;;;;;952624;148;27320;-81
2024/01/24 01:38:46;;;;;;;3.00;1.22;;;13.50;99.90;;;;;;953337;147;27331;-81
2024/01/24 01:41:13;;;;;;;1.98;1.47;;;13.50;99.90;;;;;;954854;148;27404;-81
2024/01/24 01:43:40;;;;;;;3.37;1.65;;;13.50;99.90;;;;;;953214;148;27337;-81
2024/01/24 01:46:06;;;;;;;3.60;1.32;;;13.60;99.90;;;;;;954502;148;27338;-81
2024/01/24 01:48:33;;;;;;;3.90;1.30;;;13.60;99.90;;;;;;952654;148;27381;-81
2024/01/24 01:50:59;;;;;;;5.20;1.72;;;13.60;99.90;;;;;;954668;148;27302;-81
2024/01/24 01:53:26;;;;;;;1.65;1.02;;;13.60;99.90;;;;;;953141;147;27379;-82
2024/01/24 01:55:53;;;;;;;1.92;1.30;;;13.60;99.90;;;;;;952893;147;27289;-82
2024/01/24 01:58:19;;;;;;;1.92;1.57;;;13.60;99.90;;;;;;954494;147;27368;-82
2024/01/24 02:00:46;;;;;;;5.12;1.30;;;13.70;99.90;;;;;;954347;147;27369;-81
2024/01/24 02:03:13;;;;;;;2.37;1.30;;;13.70;99.90;;;;;;953944;147;27299;-82
2024/01/24 02:05:39;;;;;;;2.08;1.25;;;13.70;99.90;;;;;;953754;147;27420;-81
2024/01/24 02:08:06;;;;;;;4.12;1.37;;;13.70;99.90;;;;;;952059;148;27327;-81
2024/01/24 02:10:32;;;;;;;1.52;1.20;;;13.70;99.90;;;;;;951459;147;27318;-81
2024/01/24 02:12:59;;;;;;;3.60;1.40;;;13.70;99.90;;;;;;953766;147;27230;-81
2024/01/24 02:15:26;;;;;;;2.55;1.20;;;13.70;99.90;;;;;;955032;148;27867;-82
2024/01/24 02:17:52;;;;;;;1.17;1.05;;;13.70;99.90;;;;;;952527;148;27347;-82
2024/01/24 02:20:18;;;;;;;3.27;1.45;;;13.70;99.90;;;;;;953086;146;27325;-82
2024/01/24 02:22:45;;;;;;;2.67;1.30;;;13.80;99.90;;;;;;962119;147;27312;-82
2024/01/24 02:25:12;;;;;;;3.37;1.32;;;13.80;99.90;;;;;;962597;147;27312;-81
2024/01/24 02:27:38;;;;;;;2.12;1.00;;;13.80;99.90;;;;;;961565;147;27426;-80
2024/01/24 02:30:05;;;;;;;2.27;1.30;;;13.80;99.90;;;;;;961089;147;27221;-80
2024/01/24 02:32:31;;;;;;;1.82;1.10;;;13.80;99.90;;;;;;961195;147;27284;-80
2024/01/24 02:34:58;;;;;;;4.03;1.67;;;13.80;99.90;;;;;;961674;147;27310;-81
2024/01/24 02:37:25;;;;;;;3.25;1.47;;;13.90;99.90;;;;;;962684;146;27350;-82
2024/01/24 02:39:51;;;;;;;2.30;0.82;;;13.90;99.90;;;;;;961803;146;27404;-80
2024/01/24 02:42:19;;;;;;;3.05;1.20;;;13.90;99.90;;;;;;962729;146;27337;-80
2024/01/24 02:44:44;;;;;;;1.95;1.30;;;13.90;99.90;;;;;;962008;146;27639;-80
2024/01/24 02:47:11;;;;;;;2.45;1.20;;;13.90;99.90;;;;;;963086;146;27375;-81
2024/01/24 02:49:38;;;;;;;3.92;1.40;;;13.90;99.90;;;;;;936963;150;27469;-79
2024/01/24 02:52:04;;;;;;;1.45;1.12;;;14.00;99.90;;;;;;931052;151;27826;-79
2024/01/24 02:54:31;;;;;;;2.65;1.10;;;14.00;99.90;;;;;;953421;148;27411;-80
2024/01/24 02:56:57;;;;;;;3.62;1.75;;;14.00;99.90;;;;;;952144;147;27362;-80
2024/01/24 02:59:24;;;;;;;1.52;1.00;;;14.00;99.90;;;;;;950739;147;27355;-79
2024/01/24 03:01:51;;;;;;;2.35;1.20;;;14.00;99.90;;;;;;950388;149;28301;-79
2024/01/24 03:04:17;;;;;;;1.62;0.90;;;14.00;99.90;;;;;;950801;147;27327;-79
2024/01/24 03:06:44;;;;;;;1.37;1.20;;;14.10;99.90;;;;;;953220;147;27404;-80
2024/01/24 03:09:11;;;;;;;1.27;1.17;;;14.10;99.90;;;;;;951418;148;27339;-82
2024/01/24 03:11:37;;;;;;;1.57;1.15;;;14.10;99.90;;;;;;949164;148;27343;-79
2024/01/24 03:14:04;;;;;;;1.90;1.20;;;14.10;99.90;;;;;;950913;147;27305;-82
2024/01/24 03:16:30;;;;;;;1.50;1.07;;;14.10;99.90;;;;;;950544;147;27704;-80
2024/01/24 03:18:57;;;;;;;1.15;1.05;;;14.20;99.90;;;;;;952590;148;27384;-80
2024/01/24 03:21:23;;;;;;;1.10;1.00;;;14.20;99.90;;;;;;950806;147;27480;-82
2024/01/24 03:23:50;;;;;;;2.58;0.82;;;14.20;99.90;;;;;;949333;147;28737;-80
2024/01/24 03:26:16;;;;;;;2.47;1.12;;;14.20;99.90;;;;;;952172;148;27279;-82
2024/01/24 03:28:43;;;;;;;3.95;1.20;;;14.20;99.90;;;;;;953336;148;27254;-82
2024/01/24 03:31:10;;;;;;;2.83;1.00;;;14.20;99.90;;;;;;952976;147;27271;-82
2024/01/24 03:33:36;;;;;;;1.25;0.90;;;14.20;99.90;;;;;;948052;147;27359;-82
2024/01/24 03:36:03;;;;;;;1.62;0.93;;;14.20;99.90;;;;;;953171;148;27364;-79
2024/01/24 03:38:29;;;;;;;1.42;1.00;;;14.20;99.90;;;;;;950387;148;27361;-80
2024/01/24 03:40:56;;;;;;;1.42;0.93;;;14.30;99.90;;;;;;951789;147;27354;-79
2024/01/24 03:43:23;;;;;;;2.62;1.00;;;14.30;99.90;;;;;;957543;147;27447;-80
2024/01/24 03:45:49;;;;;;;4.58;1.07;;;14.30;99.90;;;;;;958780;147;27385;-80
2024/01/24 03:48:16;;;;;;;0.57;0.57;;;14.30;99.90;;;;;;958071;147;27245;-80
2024/01/24 03:50:42;;;;;;;2.00;1.07;;;14.30;99.90;;;;;;957691;147;27405;-80
2024/01/24 03:53:09;;;;;;;0.57;0.57;;;14.30;99.90;;;;;;958122;146;27420;-79
2024/01/24 03:55:35;;;;;;;1.57;1.47;;;14.30;99.90;;;;;;958110;147;27336;-80
2024/01/24 03:58:02;;;;;;;1.12;1.02;;;14.40;99.90;;;;;;958588;147;27318;-80
2024/01/24 04:00:29;;;;;;;0.60;0.60;;;14.40;99.90;;;;;;958339;146;27262;-80
2024/01/24 04:02:55;;;;;;;1.62;0.75;;;14.40;99.90;;;;;;958609;147;27253;-81
2024/01/24 04:05:22;;;;;;;1.37;0.70;;;14.40;99.90;;;;;;952557;145;27348;-80
2024/01/24 04:07:48;;;;;;;1.20;0.70;;;14.40;99.90;;;;;;949894;147;28146;-79
2024/01/24 04:10:16;;;;;;;0.45;0.40;;;14.40;99.90;;;;;;950886;147;27969;-79
2024/01/24 04:12:42;;;;;;;0.75;0.75;;;14.50;99.90;;;;;;951410;147;27267;-80
2024/01/24 04:15:08;;;;;;;1.35;0.98;;;14.50;99.90;;;;;;952153;147;27393;-81
2024/01/24 04:17:35;;;;;;;0.40;0.40;;;14.50;99.90;;;;;;949674;148;27725;-79
2024/01/24 04:20:02;;;;;;;1.87;0.90;;;14.50;99.90;;;;;;953555;146;27295;-79
2024/01/24 04:22:28;;;;;;;2.85;0.82;;;14.60;99.90;;;;;;952665;146;27299;-80
2024/01/24 04:24:55;;;;;;;1.05;0.55;;;14.60;99.90;;;;;;952324;146;27343;-82
2024/01/24 04:27:21;;;;;;;0.75;0.72;;;14.60;99.90;;;;;;952553;147;27370;-80
2024/01/24 04:29:48;;;;;;;1.20;0.70;;;14.60;99.90;;;;;;954257;147;27244;-80
2024/01/24 04:32:14;;;;;;;0.70;0.60;;;14.60;99.90;;;;;;953432;148;27440;-80
2024/01/24 04:34:41;;;;;;;0.45;0.45;;;14.60;99.90;;;;;;955656;147;27258;-82
2024/01/24 04:37:08;;;;;;;0.80;0.65;;;14.60;99.90;;;;;;953728;147;27341;-80
2024/01/24 04:39:34;;;;;;;0.50;0.47;;;14.70;99.90;;;;;;952955;147;27632;-79
2024/01/24 04:42:01;;;;;;;0.57;0.57;;;14.70;99.90;;;;;;952974;148;27660;-80
2024/01/24 04:44:27;;;;;;;0.40;0.40;;;14.70;99.90;;;;;;954398;148;27288;-81
2024/01/24 04:46:54;;;;;;;0.78;0.78;;;14.80;99.90;;;;;;954802;147;27363;-82
2024/01/24 04:49:20;;;;;;;0.70;0.70;;;14.80;99.90;;;;;;953426;147;27417;-82
2024/01/24 04:51:48;;;;;;;0.40;0.40;;;14.80;99.90;;;;;;954906;148;27309;-82
2024/01/24 04:54:14;;;;;;;0.53;0.50;;;14.80;99.90;;;;;;954412;148;27728;-82
2024/01/24 04:56:40;;;;;;;0.35;0.35;;;14.80;99.90;;;;;;953425;147;27336;-82
2024/01/24 04:59:07;;;;;;;0.55;0.50;;;14.80;99.90;;;;;;953918;147;27430;-82
2024/01/24 05:01:33;;;;;;;1.17;0.65;;;14.80;99.90;;;;;;954159;147;27436;-82
2024/01/24 05:04:00;;;;;;;0.47;0.40;;;14.80;99.90;;;;;;955160;148;27601;-82
2024/01/24 05:06:27;;;;;;;0.72;0.57;;;14.90;99.90;;;;;;954017;148;27275;-82
2024/01/24 05:08:53;;;;;;;0.50;0.50;;;14.90;99.90;;;;;;955523;146;27382;-82
2024/01/24 05:11:20;;;;;;;0.42;0.40;;;14.90;99.90;;;;;;954081;147;28249;-82
2024/01/24 05:13:46;;;;;;;0.88;0.40;;;14.90;99.90;;;;;;954962;148;27284;-82
2024/01/24 05:16:13;;;;;;;0.90;0.50;;;14.90;99.90;;;;;;954172;147;27594;-82
2024/01/24 05:18:40;;;;;;;0.98;0.40;;;14.80;99.90;;;;;;954203;147;27329;-82
2024/01/24 05:21:06;;;;;;;0.40;0.40;;;14.80;99.90;;;;;;953015;148;27265;-82
2024/01/24 05:23:33;;;;;;;0.30;0.30;;;14.70;99.90;;;;;;950876;147;27465;-82
2024/01/24 05:25:59;;;;;;;0.30;0.30;;;14.70;99.90;;;;;;949507;148;27324;-82
2024/01/24 05:28:26;;;;;;;0.40;0.40;;;14.60;99.90;;;;;;948401;147;27331;-82
2024/01/24 05:30:52;;;;;;;0.68;0.55;;;14.60;99.90;;;;;;945760;148;27386;-82
2024/01/24 05:33:19;;;;;;;0.35;0.35;;;14.60;99.90;;;;;;948407;148;27269;-82
2024/01/24 05:35:48;;;;;;;0.50;0.50;;;14.60;99.90;;;;;;950128;147;27340;-82
2024/01/24 05:38:15;;;;;;;0.35;0.35;;;14.60;99.90;;;;;;950003;148;27358;-82
2024/01/24 05:40:41;;;;;;;0.60;0.60;;;14.50;99.90;;;;;;948913;148;27347;-82
2024/01/24 05:43:08;;;;;;;0.88;0.40;;;14.50;99.90;;;;;;948824;147;27292;-82
2024/01/24 05:45:34;;;;;;;0.50;0.40;;;14.50;99.90;;;;;;948870;148;27278;-82
2024/01/24 05:48:01;;;;;;;0.93;0.40;;;14.50;99.90;;;;;;947976;147;27342;-81
2024/01/24 05:50:28;;;;;;;0.30;0.30;;;14.50;99.90;;;;;;949506;148;27416;-81
2024/01/24 05:52:54;;;;;;;0.30;0.25;;;14.50;99.90;;;;;;948066;148;27303;-81
2024/01/24 05:55:23;;;;;;;0.50;0.50;;;14.60;99.90;;;;;;948023;148;27351;-81
2024/01/24 05:57:48;;;;;;;0.40;0.40;;;14.60;99.90;;;;;;949837;148;27358;-82
2024/01/24 06:00:14;;;;;;;0.65;0.40;;;14.60;99.90;;;;;;948952;146;27335;-82
2024/01/24 06:02:41;;;;;;;0.20;0.20;;;14.60;99.90;;;;;;947766;149;27247;-82
2024/01/24 06:05:10;;;;;;;0.47;0.47;;;14.60;99.90;;;;;;949883;147;27258;-82
2024/01/24 06:07:37;;;;;;;0.45;0.45;;;14.70;99.90;;;;;;945825;148;27259;-82
2024/01/24 06:10:04;;;;;;;0.30;0.30;;;14.70;99.90;;;;;;948395;147;27406;-82
2024/01/24 06:12:30;;;;;;;0.93;0.37;;;14.70;99.90;;;;;;947022;147;28400;-82
2024/01/24 06:14:56;;;;;;;0.47;0.40;;;14.80;99.90;;;;;;949000;149;27381;-82
2024/01/24 06:17:23;;;;;;;0.50;0.50;;;14.80;99.90;;;;;;949854;149;27379;-82
2024/01/24 06:19:50;;;;;;;0.70;0.53;;;14.80;99.90;;;;;;947828;148;27322;-82
2024/01/24 06:22:16;;;;;;;0.20;0.20;;;14.80;99.90;;;;;;947178;148;27381;-82
2024/01/24 06:24:43;;;;;;;0.62;0.50;;;14.90;99.90;;;;;;942770;147;27359;-82
2024/01/24 06:27:09;;;;;;;0.23;0.23;;;14.90;99.90;;;;;;939517;148;27271;-81
2024/01/24 06:29:36;;;;;;;0.30;0.30;;;14.90;99.90;;;;;;950360;148;27347;-82
2024/01/24 06:32:02;;;;;;;0.42;0.30;;;15.00;99.90;;;;;;951261;147;27411;-81
2024/01/24 06:34:29;;;;;;;1.60;1.50;;;15.00;99.90;;;;;;951225;148;27480;-82
2024/01/24 06:36:56;;;;;;;1.07;0.80;;;15.00;99.90;;;;;;950697;147;27257;-82
2024/01/24 06:39:22;;;;;;;0.40;0.40;;;15.00;99.90;;;;;;950970;147;27322;-82
2024/01/24 06:41:49;;;;;;;0.30;0.30;;;15.10;99.90;;;;;;956794;147;27420;-81
2024/01/24 06:44:15;;;;;;;0.85;0.30;;;15.10;99.90;;;;;;948980;148;27232;-82
2024/01/24 06:46:42;;;;;;;0.23;0.23;;;15.10;99.90;;;;;;949322;148;27279;-82
2024/01/24 06:49:11;;;;;;;0.30;0.30;;;15.10;99.90;;;;;;951709;148;27705;-82
2024/01/24 06:51:37;;;;;;;0.20;0.20;;;15.10;99.90;;;;;;950199;148;27336;-82
2024/01/24 06:54:02;;;;;;;0.35;0.35;;;15.20;99.90;;;;;;952827;147;27347;-82
2024/01/24 06:56:28;;;;;;;0.20;0.20;;;15.20;99.90;;;;;;952492;147;27289;-81
2024/01/24 06:58:55;;;;;;;0.20;0.20;;;15.20;99.90;;;;;;956332;146;27319;-81
2024/01/24 07:01:22;;;;;;;0.30;0.30;;;15.20;99.90;;;;;;960636;146;27380;-81
2024/01/24 07:03:48;;;;;;;0.20;0.20;;;15.20;99.90;;;;;;959816;146;27283;-81
2024/01/24 07:06:15;;;;;;;0.80;0.30;;;15.30;99.90;;;;;;960686;146;27273;-84
2024/01/24 07:08:41;;;;;;;0.20;0.20;;;15.20;99.90;;;;;;958990;145;27307;-83
2024/01/24 07:11:08;;;;;;;0.55;0.55;;;15.20;99.90;;;;;;960137;146;27406;-82
2024/01/24 07:13:35;;;;;;;0.30;0.30;;;15.20;99.90;;;;;;959634;147;27331;-83
2024/01/24 07:16:04;;;;;;;0.20;0.20;;;15.20;99.90;;;;;;959278;147;27283;-84
2024/01/24 07:18:28;;;;;;;0.30;0.30;;;15.10;99.90;;;;;;959057;146;27426;-84
2024/01/24 07:20:54;;;;;;;0.50;0.47;;;15.10;99.90;;;;;;958790;147;27308;-84
2024/01/24 07:23:21;;;;;;;0.35;0.35;;;15.10;99.90;;;;;;958052;146;27319;-83
2024/01/24 07:25:47;;;;;;;1.37;0.70;;;15.00;99.90;;;;;;974279;145;27406;-83
2024/01/24 07:28:14;;;;;;;0.65;0.65;;;15.00;99.90;;;;;;974601;145;27848;-83
2024/01/24 07:30:41;;;;;;;0.40;0.40;;;14.90;99.90;;;;;;974069;145;27301;-83
2024/01/24 07:33:07;;;;;;;0.30;0.30;;;14.90;99.90;;;;;;974042;144;27341;-83
2024/01/24 07:35:34;;;;;;;0.40;0.40;;;14.90;99.90;;;;;;973937;145;27332;-87
2024/01/24 07:38:00;;;;;;;0.30;0.30;;;14.80;99.90;;;;;;973005;145;27351;-84
2024/01/24 07:40:27;;;;;;;0.20;0.20;;;14.80;99.90;;;;;;972681;145;27300;-84
2024/01/24 07:42:54;;;;;;;0.42;0.42;;;14.70;99.90;;;;;;974572;145;27400;-81
2024/01/24 07:45:20;;;;;;;0.90;0.42;;;14.70;99.90;;;;;;974235;145;27465;-85
2024/01/24 07:47:47;;;;;;;0.30;0.30;;;14.70;99.90;;;;;;975011;145;27399;-83
2024/01/24 07:50:13;;;;;;;1.40;0.33;;;14.70;99.90;;;;;;974305;145;27350;-83
2024/01/24 07:52:40;;;;;;;0.30;0.30;;;14.70;99.90;;;;;;974194;144;27231;-82
2024/01/24 07:55:07;;;;;;;0.30;0.30;;;14.70;99.90;;;;;;974911;144;27432;-84
2024/01/24 07:57:33;;;;;;;0.30;0.30;;;14.70;99.90;;;;;;974173;145;27285;-84
2024/01/24 08:00:00;;;;;;;0.60;0.40;;;14.70;99.90;;;;;;974496;144;27262;-83
2024/01/24 08:02:27;;;;;;;0.28;0.28;;;14.70;99.90;;;;;;974777;145;27327;-84
2024/01/24 08:04:53;;;;;;;0.30;0.30;;;14.70;99.90;;;;;;973335;145;27345;-84
2024/01/24 08:07:19;;;;;;;0.30;0.30;;;14.70;99.90;;;;;;974556;145;27332;-82
2024/01/24 08:09:46;;;;;;;0.30;0.30;;;14.80;99.90;;;;;;974345;145;27289;-83
2024/01/24 08:12:13;;;;;;;0.20;0.20;;;14.80;99.90;;;;;;975415;145;27292;-82
2024/01/24 08:14:39;;;;;;;0.30;0.30;;;14.80;99.90;;;;;;974330;145;27353;-81
2024/01/24 08:17:06;;;;;;;0.55;0.30;;;14.80;99.90;;;;;;973408;145;27367;-77
2024/01/24 08:19:33;;;;;;;0.37;0.37;;;14.80;99.90;;;;;;975121;145;27974;-79
2024/01/24 08:21:59;;;;;;;0.30;0.30;;;14.90;99.90;;;;;;975222;144;27369;-79
2024/01/24 08:24:26;;;;;;;0.30;0.30;;;14.90;99.90;;;;;;973380;145;27328;-84
2024/01/24 08:26:52;;;;;;;0.37;0.37;;;14.90;99.90;;;;;;953248;147;27348;-79
2024/01/24 08:29:19;;;;;;;0.40;0.40;;;14.90;99.90;;;;;;953310;147;28293;-79
2024/01/24 08:31:45;;;;;;;0.50;0.50;;;14.80;99.90;;;;;;953466;148;27308;-78
2024/01/24 08:34:12;;;;;;;0.33;0.33;;;14.90;99.90;;;;;;953830;148;27360;-80
2024/01/24 08:36:39;;;;;;;0.30;0.30;;;14.80;99.90;;;;;;954617;148;27325;-82
2024/01/24 08:39:06;;;;;;;0.50;0.40;;;14.80;99.90;;;;;;955084;148;27321;-79
2024/01/24 08:41:32;;;;;;;0.65;0.30;;;14.80;99.90;;;;;;953178;147;27372;-79
2024/01/24 08:43:58;;;;;;;0.30;0.30;;;14.90;99.90;;;;;;954585;148;27261;-79
2024/01/24 08:46:25;;;;;;;0.40;0.40;;;14.90;99.90;;;;;;954603;147;27406;-80
2024/01/24 08:48:51;;;;;;;0.35;0.35;;;15.00;99.90;;;;;;955211;147;27352;-79
2024/01/24 08:51:18;;;;;;;0.33;0.30;;;15.10;99.90;;;;;;952410;148;27366;-79
2024/01/24 08:53:46;;;;;;;0.62;0.50;;;15.20;99.90;;;;;;954227;147;27761;-79
2024/01/24 08:56:11;;;;;;;0.33;0.33;;;15.40;99.90;;;;;;952311;147;27363;-80
2024/01/24 08:58:38;;;;;;;0.30;0.30;;;15.50;99.90;;;;;;952932;147;27336;-78
2024/01/24 09:01:04;;;;;;;0.30;0.30;;;15.70;99.90;;;;;;953216;147;27308;-78
2024/01/24 09:03:31;;;;;;;2.37;0.50;;;15.90;99.90;;;;;;955528;147;27315;-79
2024/01/24 09:05:58;;;;;;;0.30;0.30;;;16.10;99.90;;;;;;953108;146;27306;-79
2024/01/24 09:08:25;;;;;;;0.50;0.50;;;16.30;99.90;;;;;;954474;148;27466;-82
2024/01/24 09:10:52;;;;;;;0.62;0.20;;;16.40;99.90;;;;;;954126;146;27344;-78
2024/01/24 09:13:21;;;;;;;0.30;0.30;;;16.60;99.90;;;;;;953598;147;27281;-79
2024/01/24 09:15:44;;;;;;;0.88;0.50;;;16.70;99.90;;;;;;954657;147;27300;-80
2024/01/24 09:18:11;;;;;;;1.00;0.57;;;16.80;99.90;;;;;;955774;147;27265;-79
2024/01/24 09:20:37;;;;;;;1.12;1.12;;;16.90;99.90;;;;;;956083;148;27883;-78
2024/01/24 09:23:04;;;;;;;0.95;0.50;;;16.90;99.90;;;;;;954456;147;27376;-80
2024/01/24 09:25:30;;;;;;;0.75;0.47;;;16.90;99.90;;;;;;957325;145;27346;-84
2024/01/24 09:27:57;;;;;;;0.72;0.60;;;16.90;99.90;;;;;;975218;145;27256;-84
2024/01/24 09:30:24;;;;;;;0.93;0.78;;;16.80;99.90;;;;;;974462;145;28848;-83
2024/01/24 09:32:51;;;;;;;2.85;1.15;;;16.80;99.40;;;;;;973832;145;27782;-84
2024/01/24 09:35:17;;;;;;;1.37;0.70;;;16.80;98.80;;;;;;973730;145;27341;-83
2024/01/24 09:37:44;;;;;;;0.80;0.80;;;16.70;98.00;;;;;;974723;145;27302;-84
2024/01/24 09:40:11;;;;;;;0.80;0.70;;;16.70;97.50;;;;;;976544;145;27284;-81
2024/01/24 09:42:36;;;;;;;2.60;0.80;;;16.70;97.40;;;;;;974522;145;27356;-83
2024/01/24 09:45:03;;;;;;;1.32;0.82;;;16.70;97.30;;;;;;971778;145;27315;-83
2024/01/24 09:47:30;;;;;;;2.40;0.80;;;16.70;97.10;;;;;;976227;145;27198;-83
2024/01/24 09:49:59;;;;;;;4.50;2.22;;;16.70;96.90;;;;;;974572;145;27394;-82
2024/01/24 09:52:24;;;;;;;1.87;0.80;;;16.70;95.80;;;;;;974197;144;27325;-81
2024/01/24 09:54:49;;;;;;;1.95;1.07;;;16.70;95.80;;;;;;975098;145;27358;-83
2024/01/24 09:57:16;;;;;;;3.27;1.20;;;16.70;95.80;;;;;;972848;145;27362;-82
2024/01/24 09:59:43;;;;;;;1.02;0.78;;;16.80;94.80;;;;;;975893;145;27392;-82
2024/01/24 10:02:09;;;;;;;3.00;1.20;;;16.80;95.30;;;;;;974311;145;27325;-81
2024/01/24 10:04:37;;;;;;;2.35;1.10;;;16.90;94.70;;;;;;973894;145;27748;-84
2024/01/24 10:07:02;;;;;;;2.52;1.15;;;17.00;94.50;;;;;;962809;144;27277;-82
2024/01/24 10:09:29;;;;;;;5.42;1.67;;;17.00;91.70;;;;;;952546;147;27311;-82
2024/01/24 10:11:56;;;;;;;2.70;1.50;;;17.20;91.80;;;;;;953897;147;27350;-81
2024/01/24 10:14:22;;;;;;;3.52;1.77;;;17.20;90.90;;;;;;952117;148;27327;-82
2024/01/24 10:16:49;;;;;;;6.75;1.90;;;17.30;90.20;;;;;;951733;147;27278;-83
2024/01/24 10:19:15;;;;;;;3.08;1.45;;;17.30;89.10;;;;;;953148;147;27306;-83
2024/01/24 10:21:42;;;;;;;5.37;1.65;;;17.30;87.20;;;;;;955527;147;27446;-81
2024/01/24 10:24:09;;;;;;;2.70;1.42;;;17.30;86.20;;;;;;953341;147;27301;-83
2024/01/24 10:26:35;;;;;;;6.03;2.05;;;17.40;86.60;;;;;;956310;145;28032;-83
2024/01/24 10:29:02;;;;;;;5.40;1.80;;;17.40;85.80;;;;;;961211;145;27339;-83
2024/01/24 10:31:28;;;;;;;6.60;1.67;;;17.40;84.80;;;;;;952645;147;27291;-83
2024/01/24 10:33:57;;;;;;;4.10;2.08;;;17.40;84.20;;;;;;953781;147;27307;-80
2024/01/24 10:36:22;;;;;;;5.70;2.12;;;17.30;83.80;;;;;;952951;147;27352;-80
2024/01/24 10:38:48;;;;;;;6.45;1.75;;;17.30;83.90;;;;;;954662;148;27248;-79
2024/01/24 10:41:15;;;;;;;5.25;1.90;;;17.30;83.60;;;;;;954339;147;27289;-79
2024/01/24 10:43:45;;;;;;;4.40;1.80;;;17.30;83.00;;;;;;952267;147;27436;-80
2024/01/24 10:46:11;;;;;;;5.17;2.10;;;17.30;83.00;;;;;;951661;147;27343;-79
2024/01/24 10:48:37;;;;;;;5.12;2.17;;;17.30;82.90;;;;;;954097;148;27354;-79
2024/01/24 10:51:04;;;;;;;5.17;2.33;;;17.20;82.00;;;;;;953092;148;27313;-79
2024/01/24 10:53:31;;;;;;;8.70;2.75;;;17.20;81.20;;;;;;952890;147;27685;-80
2024/01/24 10:55:57;;;;;;;4.87;2.10;;;17.20;81.10;;;;;;954033;147;27354;-79
2024/01/24 10:58:24;;;;;;;4.85;1.90;;;17.10;80.90;;;;;;955120;147;27331;-79
2024/01/24 11:00:50;;;;;;;6.80;2.77;;;17.10;79.70;;;;;;951944;148;27370;-78
2024/01/24 11:03:17;;;;;;;4.87;1.72;;;17.00;80.20;;;;;;953315;148;27289;-80
2024/01/24 11:05:46;;;;;;;4.05;2.05;;;17.00;80.20;;;;;;954290;148;27314;-81
2024/01/24 11:08:24;;;;;;;10.38;2.80;;;17.00;80.00;;;;;;957033;148;27385;-79
2024/01/24 11:10:51;;;;;;;6.30;2.52;;;16.90;79.70;;;;;;954342;147;27284;-81
2024/01/24 11:13:18;;;;;;;9.55;3.27;;;16.90;79.60;;;;;;953141;148;27252;-82
2024/01/24 11:15:45;;;;;;;5.00;3.15;;;16.90;78.80;;;;;;951988;147;27336;-81
2024/01/24 11:18:22;;;;;;;6.35;2.75;;;16.90;79.50;;;;;;955463;148;27360;-82
2024/01/24 11:20:49;;;;;;;7.60;2.50;;;16.80;78.50;;;;;;954987;147;27362;-79
2024/01/24 11:23:35;;;;;;;6.20;2.87;;;16.80;78.70;;;;;;954428;147;27364;-80
2024/01/24 11:26:00;;;;;;;10.32;2.98;;;16.80;78.60;;;;;;953480;147;27333;-81
2024/01/24 11:28:27;;;;;;;6.30;2.50;;;16.80;78.60;;;;;;958695;147;27400;-81
2024/01/24 11:30:54;;;;;;;6.62;2.67;;;16.80;78.30;;;;;;950364;147;27338;-81
2024/01/24 11:33:20;;;;;;;6.05;2.58;;;16.70;78.00;;;;;;949823;148;27364;-80
2024/01/24 11:35:47;;;;;;;7.05;2.75;;;16.70;78.00;;;;;;949395;148;27316;-84
2024/01/24 11:38:23;;;;;;;10.60;3.10;;;16.70;77.40;;;;;;947675;149;27348;-84
2024/01/24 11:40:52;;;;;;;8.08;3.00;;;16.70;77.20;;;;;;947440;148;27443;-84
2024/01/24 11:43:27;;;;;;;8.88;3.60;;;16.70;77.20;;;;;;946208;148;27288;-82
2024/01/24 11:45:58;;;;;;;6.30;2.60;;;16.70;76.90;;;;;;947664;148;27323;-81
2024/01/24 11:48:24;;;;;;;7.65;2.62;;;16.70;76.80;;;;;;949663;148;27356;-83
2024/01/24 11:50:56;;;;;;;9.05;3.05;;;16.70;76.40;;;;;;950324;148;27242;-82
2024/01/24 11:53:23;;;;;;;7.75;2.52;;;16.70;76.60;;;;;;949586;148;27370;-83
2024/01/24 11:55:58;;;;;;;8.28;2.47;;;16.70;76.50;;;;;;950261;148;27288;-81
2024/01/24 11:58:28;;;;;;;6.60;2.70;;;16.70;76.60;;;;;;948851;149;28018;-83
2024/01/24 12:00:56;;;;;;;6.78;2.65;;;16.70;76.20;;;;;;947386;149;27393;-82
2024/01/24 12:03:23;;;;;;;7.92;2.27;;;16.70;75.90;;;;;;950296;148;27317;-80
2024/01/24 12:05:49;;;;;;;6.55;2.90;;;16.70;75.30;;;;;;948056;148;27415;-83
2024/01/24 12:08:16;;;;;;;9.40;3.35;;;16.70;75.30;;;;;;948812;148;27360;-84
2024/01/24 12:10:43;;;;;;;8.78;3.05;;;16.80;75.10;;;;;;947828;148;27275;-82
2024/01/24 12:13:09;;;;;;;9.53;2.95;;;16.80;75.00;;;;;;948941;148;27313;-82
2024/01/24 12:15:36;;;;;;;7.75;2.87;;;16.80;74.70;;;;;;947723;148;27335;-83
2024/01/24 12:18:08;;;;;;;8.93;2.62;;;16.80;74.10;;;;;;949016;148;27394;-83
2024/01/24 12:20:34;;;;;;;8.15;3.08;;;16.80;74.10;;;;;;948446;148;27249;-83
2024/01/24 12:23:04;;;;;;;6.58;2.58;;;16.80;74.10;;;;;;949363;148;27331;-80
2024/01/24 12:25:31;;;;;;;7.17;3.00;;;16.80;73.90;;;;;;946820;148;27471;-83
2024/01/24 12:27:57;;;;;;;7.22;2.75;;;16.80;73.70;;;;;;950761;148;27356;-83
2024/01/24 12:30:32;;;;;;;7.12;2.77;;;16.80;73.50;;;;;;952431;148;27229;-83
2024/01/24 12:32:57;;;;;;;6.60;2.72;;;16.80;73.40;;;;;;950193;148;27405;-82
2024/01/24 12:35:25;;;;;;;8.13;2.95;;;16.80;73.30;;;;;;950643;147;27416;-83
2024/01/24 12:37:52;;;;;;;7.08;2.85;;;16.80;73.20;;;;;;950340;147;27397;-83
2024/01/24 12:40:18;;;;;;;10.93;2.95;;;16.80;73.10;;;;;;952173;147;27281;-82
2024/01/24 12:42:45;;;;;;;9.18;2.90;;;16.80;73.00;;;;;;950665;147;27341;-83